sensor_id;sensor_type;location;lat;lon;timestamp;pressure;altitude;pressure_sealevel;temperature;humidity
51031;BME280;37058;41.442;23.240;2023-04-30T00:01:47;100234.41;;;12.96;79.93
51031;BME280;37058;41.442;23.240;2023-04-30T00:04:13;100241.53;;;12.76;81.22
51031;BME280;37058;41.442;23.240;2023-04-30T00:06:39;100245.63;;;12.74;81.58
51031;BME280;37058;41.442;23.240;2023-04-30T00:09:05;100247.25;;;12.75;81.57
51031;BME280;37058;41.442;23.240;2023-04-30T00:11:31;100249.75;;;12.71;81.90
51031;BME280;37058;41.442;23.240;2023-04-30T00:13:57;100242.03;;;12.73;81.85
51031;BME280;37058;41.442;23.240;2023-04-30T00:16:23;100244.25;;;12.71;81.87
51031;BME280;37058;41.442;23.240;2023-04-30T00:18:49;100247.81;;;12.72;81.67
51031;BME280;37058;41.442;23.240;2023-04-30T00:21:15;100254.66;;;12.69;82.10
51031;BME280;37058;41.442;23.240;2023-04-30T00:23:41;100251.09;;;12.69;82.40
51031;BME280;37058;41.442;23.240;2023-04-30T00:26:06;100248.59;;;12.57;82.93
51031;BME280;37058;41.442;23.240;2023-04-30T00:28:32;100249.13;;;12.49;83.52
51031;BME280;37058;41.442;23.240;2023-04-30T00:30:58;100257.88;;;12.46;83.92
51031;BME280;37058;41.442;23.240;2023-04-30T00:33:24;100261.16;;;12.48;84.00
51031;BME280;37058;41.442;23.240;2023-04-30T00:35:50;100258.41;;;12.48;84.17
51031;BME280;37058;41.442;23.240;2023-04-30T00:38:16;100258.97;;;12.50;84.25
51031;BME280;37058;41.442;23.240;2023-04-30T00:40:42;100253.22;;;12.46;84.43
51031;BME280;37058;41.442;23.240;2023-04-30T00:43:08;100257.34;;;12.49;84.27
51031;BME280;37058;41.442;23.240;2023-04-30T00:45:34;100258.41;;;12.48;84.25
51031;BME280;37058;41.442;23.240;2023-04-30T00:48:00;100265.81;;;12.47;84.02
51031;BME280;37058;41.442;23.240;2023-04-30T00:50:28;100257.03;;;12.45;84.08
51031;BME280;37058;41.442;23.240;2023-04-30T00:52:54;100258.41;;;12.43;84.60
51031;BME280;37058;41.442;23.240;2023-04-30T00:55:20;100260.63;;;12.41;84.83
51031;BME280;37058;41.442;23.240;2023-04-30T00:57:46;100254.03;;;12.47;84.60
51031;BME280;37058;41.442;23.240;2023-04-30T01:00:13;100251.06;;;12.48;84.33
51031;BME280;37058;41.442;23.240;2023-04-30T01:02:39;100255.69;;;12.48;84.03
51031;BME280;37058;41.442;23.240;2023-04-30T01:05:06;100249.66;;;12.46;84.30
51031;BME280;37058;41.442;23.240;2023-04-30T01:07:34;100256.53;;;12.48;84.61
51031;BME280;37058;41.442;23.240;2023-04-30T01:10:01;100253.22;;;12.46;84.82
51031;BME280;37058;41.442;23.240;2023-04-30T01:12:36;100251.31;;;12.47;85.00
51031;BME280;37058;41.442;23.240;2023-04-30T01:15:17;100244.19;;;12.46;84.88
51031;BME280;37058;41.442;23.240;2023-04-30T01:18:06;100246.94;;;12.46;84.75
51031;BME280;37058;41.442;23.240;2023-04-30T01:20:42;100246.09;;;12.45;84.14
51031;BME280;37058;41.442;23.240;2023-04-30T01:28:58;100256.78;;;12.42;84.74
51031;BME280;37058;41.442;23.240;2023-04-30T01:31:27;100245.81;;;12.42;84.72
51031;BME280;37058;41.442;23.240;2023-04-30T01:33:53;100247.72;;;12.36;85.01
51031;BME280;37058;41.442;23.240;2023-04-30T01:42:04;100246.50;;;12.11;86.36
51031;BME280;37058;41.442;23.240;2023-04-30T01:44:47;100246.47;;;12.01;86.38
51031;BME280;37058;41.442;23.240;2023-04-30T01:50:01;100245.88;;;11.94;86.06
51031;BME280;37058;41.442;23.240;2023-04-30T01:52:39;100236.28;;;11.91;86.14
51031;BME280;37058;41.442;23.240;2023-04-30T01:55:12;100244.25;;;11.93;86.29
51031;BME280;37058;41.442;23.240;2023-04-30T01:57:43;100242.06;;;11.95;86.22
51031;BME280;37058;41.442;23.240;2023-04-30T02:00:11;100234.84;;;11.84;86.83
51031;BME280;37058;41.442;23.240;2023-04-30T02:02:39;100236.44;;;11.75;87.71
51031;BME280;37058;41.442;23.240;2023-04-30T02:05:06;100249.03;;;11.76;87.79
51031;BME280;37058;41.442;23.240;2023-04-30T02:07:44;100234.53;;;11.75;87.78
51031;BME280;37058;41.442;23.240;2023-04-30T02:10:10;100237.28;;;11.75;87.84
51031;BME280;37058;41.442;23.240;2023-04-30T02:12:37;100226.03;;;11.71;87.53
51031;BME280;37058;41.442;23.240;2023-04-30T02:15:04;100240.50;;;11.67;87.95
51031;BME280;37058;41.442;23.240;2023-04-30T02:17:31;100243.47;;;11.60;88.88
51031;BME280;37058;41.442;23.240;2023-04-30T02:19:58;100247.03;;;11.61;88.66
51031;BME280;37058;41.442;23.240;2023-04-30T02:22:23;100250.44;;;11.41;90.67
51031;BME280;37058;41.442;23.240;2023-04-30T02:24:50;100242.16;;;11.31;91.15
51031;BME280;37058;41.442;23.240;2023-04-30T02:27:19;100242.38;;;11.24;91.25
51031;BME280;37058;41.442;23.240;2023-04-30T02:29:45;100239.97;;;11.27;90.93
51031;BME280;37058;41.442;23.240;2023-04-30T02:32:11;100244.56;;;11.22;91.00
51031;BME280;37058;41.442;23.240;2023-04-30T02:34:37;100241.88;;;11.27;90.81
51031;BME280;37058;41.442;23.240;2023-04-30T02:37:03;100234.22;;;11.29;89.76
51031;BME280;37058;41.442;23.240;2023-04-30T02:39:29;100240.81;;;11.33;89.26
51031;BME280;37058;41.442;23.240;2023-04-30T02:41:55;100238.06;;;11.33;89.26
51031;BME280;37058;41.442;23.240;2023-04-30T02:44:20;100244.66;;;11.32;89.26
51031;BME280;37058;41.442;23.240;2023-04-30T02:46:46;100248.97;;;11.28;89.40
51031;BME280;37058;41.442;23.240;2023-04-30T02:49:12;100241.34;;;11.30;89.33
51031;BME280;37058;41.442;23.240;2023-04-30T02:51:38;100240.53;;;11.30;88.79
51031;BME280;37058;41.442;23.240;2023-04-30T02:54:04;100242.13;;;11.25;88.68
51031;BME280;37058;41.442;23.240;2023-04-30T02:56:30;100238.56;;;11.25;88.66
51031;BME280;37058;41.442;23.240;2023-04-30T02:58:56;100238.03;;;11.28;88.11
51031;BME280;37058;41.442;23.240;2023-04-30T03:01:21;100242.69;;;11.27;87.83
51031;BME280;37058;41.442;23.240;2023-04-30T03:03:47;100243.75;;;11.26;86.97
51031;BME280;37058;41.442;23.240;2023-04-30T03:06:13;100251.88;;;11.16;85.86
51031;BME280;37058;41.442;23.240;2023-04-30T03:08:39;100244.97;;;11.09;85.69
51031;BME280;37058;41.442;23.240;2023-04-30T03:11:05;100262.94;;;10.99;84.80
51031;BME280;37058;41.442;23.240;2023-04-30T03:13:31;100258.41;;;10.83;85.74
51031;BME280;37058;41.442;23.240;2023-04-30T03:16:01;100257.13;;;10.63;87.51
51031;BME280;37058;41.442;23.240;2023-04-30T03:18:29;100249.59;;;10.49;89.07
51031;BME280;37058;41.442;23.240;2023-04-30T03:20:56;100259.44;;;10.50;90.08
51031;BME280;37058;41.442;23.240;2023-04-30T03:23:22;100252.38;;;10.54;89.88
51031;BME280;37058;41.442;23.240;2023-04-30T03:25:48;100262.22;;;10.55;89.55
51031;BME280;37058;41.442;23.240;2023-04-30T03:28:14;100258.72;;;10.59;89.54
51031;BME280;37058;41.442;23.240;2023-04-30T03:30:40;100261.50;;;10.65;89.12
51031;BME280;37058;41.442;23.240;2023-04-30T03:33:06;100260.47;;;10.71;89.04
51031;BME280;37058;41.442;23.240;2023-04-30T03:35:33;100269.22;;;10.73;89.01
51031;BME280;37058;41.442;23.240;2023-04-30T03:38:00;100271.97;;;10.73;89.18
51031;BME280;37058;41.442;23.240;2023-04-30T03:40:26;100271.72;;;10.74;89.18
51031;BME280;37058;41.442;23.240;2023-04-30T03:42:52;100280.50;;;10.76;88.90
51031;BME280;37058;41.442;23.240;2023-04-30T03:45:18;100286.78;;;10.77;89.02
51031;BME280;37058;41.442;23.240;2023-04-30T03:47:44;100289.19;;;10.73;88.11
51031;BME280;37058;41.442;23.240;2023-04-30T03:50:11;100287.47;;;10.67;86.69
51031;BME280;37058;41.442;23.240;2023-04-30T03:52:37;100288.19;;;10.57;86.32
51031;BME280;37058;41.442;23.240;2023-04-30T03:55:04;100290.47;;;10.66;86.51
51031;BME280;37058;41.442;23.240;2023-04-30T03:57:31;100291.50;;;10.59;86.45
51031;BME280;37058;41.442;23.240;2023-04-30T03:59:57;100294.69;;;10.51;87.00
51031;BME280;37058;41.442;23.240;2023-04-30T04:02:24;100295.69;;;10.45;87.36
51031;BME280;37058;41.442;23.240;2023-04-30T04:04:50;100294.88;;;10.45;87.41
51031;BME280;37058;41.442;23.240;2023-04-30T04:07:16;100299.13;;;10.57;86.90
51031;BME280;37058;41.442;23.240;2023-04-30T04:09:42;100297.59;;;10.67;85.55
51031;BME280;37058;41.442;23.240;2023-04-30T04:12:08;100305.25;;;10.70;84.56
51031;BME280;37058;41.442;23.240;2023-04-30T04:14:34;100305.94;;;10.82;84.43
51031;BME280;37058;41.442;23.240;2023-04-30T04:17:00;100309.03;;;10.91;83.94
51031;BME280;37058;41.442;23.240;2023-04-30T04:19:27;100312.34;;;10.93;84.05
51031;BME280;37058;41.442;23.240;2023-04-30T04:21:53;100313.47;;;10.97;84.10
51031;BME280;37058;41.442;23.240;2023-04-30T04:24:19;100320.91;;;11.01;84.35
51031;BME280;37058;41.442;23.240;2023-04-30T04:26:46;100323.38;;;11.03;83.20
51031;BME280;37058;41.442;23.240;2023-04-30T04:29:12;100328.94;;;11.13;83.00
51031;BME280;37058;41.442;23.240;2023-04-30T04:31:38;100323.94;;;11.32;82.56
51031;BME280;37058;41.442;23.240;2023-04-30T04:34:06;100326.84;;;11.53;81.65
51031;BME280;37058;41.442;23.240;2023-04-30T04:36:32;100332.44;;;11.68;81.11
51031;BME280;37058;41.442;23.240;2023-04-30T04:38:59;100324.88;;;11.80;80.81
51031;BME280;37058;41.442;23.240;2023-04-30T04:41:32;100318.28;;;11.81;81.03
51031;BME280;37058;41.442;23.240;2023-04-30T04:44:00;100326.59;;;11.91;81.31
51031;BME280;37058;41.442;23.240;2023-04-30T04:46:33;100340.63;;;12.00;81.25
51031;BME280;37058;41.442;23.240;2023-04-30T04:48:59;100342.88;;;12.08;81.70
51031;BME280;37058;41.442;23.240;2023-04-30T04:51:25;100345.69;;;12.24;81.01
51031;BME280;37058;41.442;23.240;2023-04-30T04:53:51;100352.00;;;12.29;80.37
51031;BME280;37058;41.442;23.240;2023-04-30T04:56:17;100348.75;;;12.38;80.81
51031;BME280;37058;41.442;23.240;2023-04-30T04:58:44;100353.72;;;12.41;81.19
51031;BME280;37058;41.442;23.240;2023-04-30T05:01:10;100348.59;;;12.60;80.69
51031;BME280;37058;41.442;23.240;2023-04-30T05:03:36;100345.91;;;12.75;80.29
51031;BME280;37058;41.442;23.240;2023-04-30T05:06:03;100351.41;;;12.80;79.89
51031;BME280;37058;41.442;23.240;2023-04-30T05:08:30;100351.75;;;12.99;78.93
51031;BME280;37058;41.442;23.240;2023-04-30T05:10:55;100353.41;;;13.10;78.27
51031;BME280;37058;41.442;23.240;2023-04-30T05:13:22;100352.38;;;13.32;77.86
51031;BME280;37058;41.442;23.240;2023-04-30T05:15:52;100343.63;;;13.40;77.22
51031;BME280;37058;41.442;23.240;2023-04-30T05:18:18;100342.53;;;13.56;76.21
51031;BME280;37058;41.442;23.240;2023-04-30T05:20:44;100351.31;;;13.58;76.58
51031;BME280;37058;41.442;23.240;2023-04-30T05:23:10;100357.91;;;13.68;75.85
51031;BME280;37058;41.442;23.240;2023-04-30T05:25:37;100357.34;;;13.76;75.58
51031;BME280;37058;41.442;23.240;2023-04-30T05:28:03;100347.47;;;13.90;74.52
51031;BME280;37058;41.442;23.240;2023-04-30T05:30:29;100355.69;;;14.05;73.76
51031;BME280;37058;41.442;23.240;2023-04-30T05:32:56;100355.34;;;14.22;73.22
51031;BME280;37058;41.442;23.240;2023-04-30T05:35:22;100361.91;;;14.42;72.07
51031;BME280;37058;41.442;23.240;2023-04-30T05:37:48;100364.53;;;14.78;71.69
51031;BME280;37058;41.442;23.240;2023-04-30T05:40:14;100355.94;;;14.94;70.68
51031;BME280;37058;41.442;23.240;2023-04-30T05:42:41;100362.44;;;15.09;69.53
51031;BME280;37058;41.442;23.240;2023-04-30T05:45:12;100354.88;;;15.35;69.01
51031;BME280;37058;41.442;23.240;2023-04-30T05:47:40;100361.22;;;15.30;68.48
51031;BME280;37058;41.442;23.240;2023-04-30T05:50:08;100363.91;;;15.41;68.52
51031;BME280;37058;41.442;23.240;2023-04-30T05:52:34;100360.50;;;15.54;65.32
51031;BME280;37058;41.442;23.240;2023-04-30T05:55:00;100350.75;;;15.72;65.38
51031;BME280;37058;41.442;23.240;2023-04-30T05:57:26;100359.19;;;15.86;65.42
51031;BME280;37058;41.442;23.240;2023-04-30T05:59:51;100351.81;;;16.05;65.17
51031;BME280;37058;41.442;23.240;2023-04-30T06:02:19;100358.94;;;16.35;66.08
51031;BME280;37058;41.442;23.240;2023-04-30T06:04:44;100361.25;;;16.76;65.07
51031;BME280;37058;41.442;23.240;2023-04-30T06:07:10;100358.75;;;16.99;64.34
51031;BME280;37058;41.442;23.240;2023-04-30T06:09:37;100353.91;;;17.09;61.44
51031;BME280;37058;41.442;23.240;2023-04-30T06:12:03;100358.50;;;17.71;59.99
51031;BME280;37058;41.442;23.240;2023-04-30T06:14:30;100365.13;;;18.03;59.79
51031;BME280;37058;41.442;23.240;2023-04-30T06:16:56;100363.38;;;18.67;58.40
51031;BME280;37058;41.442;23.240;2023-04-30T06:19:21;100350.25;;;20.93;49.97
51031;BME280;37058;41.442;23.240;2023-04-30T06:21:47;100349.47;;;21.10;49.98
51031;BME280;37058;41.442;23.240;2023-04-30T06:24:13;100350.91;;;20.10;51.51
51031;BME280;37058;41.442;23.240;2023-04-30T06:26:39;100350.22;;;19.37;53.08
51031;BME280;37058;41.442;23.240;2023-04-30T06:29:05;100346.97;;;18.71;55.15
51031;BME280;37058;41.442;23.240;2023-04-30T06:31:31;100338.78;;;18.52;56.71
51031;BME280;37058;41.442;23.240;2023-04-30T06:33:56;100334.47;;;18.18;58.19
51031;BME280;37058;41.442;23.240;2023-04-30T06:36:22;100335.41;;;18.27;58.06
51031;BME280;37058;41.442;23.240;2023-04-30T06:38:48;100330.59;;;18.19;58.46
51031;BME280;37058;41.442;23.240;2023-04-30T06:41:14;100338.97;;;18.14;58.80
51031;BME280;37058;41.442;23.240;2023-04-30T06:43:42;100339.16;;;18.04;58.94
51031;BME280;37058;41.442;23.240;2023-04-30T06:46:08;100335.88;;;18.02;58.90
51031;BME280;37058;41.442;23.240;2023-04-30T06:48:34;100338.44;;;17.98;58.79
51031;BME280;37058;41.442;23.240;2023-04-30T06:51:00;100338.41;;;17.84;59.23
51031;BME280;37058;41.442;23.240;2023-04-30T06:53:26;100333.34;;;17.72;59.27
51031;BME280;37058;41.442;23.240;2023-04-30T06:55:52;100332.28;;;17.68;59.17
51031;BME280;37058;41.442;23.240;2023-04-30T06:58:18;100323.22;;;17.49;59.87
51031;BME280;37058;41.442;23.240;2023-04-30T07:00:44;100322.56;;;17.38;59.12
51031;BME280;37058;41.442;23.240;2023-04-30T07:03:10;100323.91;;;17.41;58.41
51031;BME280;37058;41.442;23.240;2023-04-30T07:05:36;100319.13;;;17.46;58.63
51031;BME280;37058;41.442;23.240;2023-04-30T07:08:03;100324.78;;;17.55;58.70
51031;BME280;37058;41.442;23.240;2023-04-30T07:10:29;100325.59;;;17.55;59.08
51031;BME280;37058;41.442;23.240;2023-04-30T07:12:56;100320.00;;;17.61;58.81
51031;BME280;37058;41.442;23.240;2023-04-30T07:15:22;100325.97;;;17.68;59.58
51031;BME280;37058;41.442;23.240;2023-04-30T07:17:48;100315.53;;;17.79;59.40
51031;BME280;37058;41.442;23.240;2023-04-30T07:20:14;100316.34;;;17.79;58.79
51031;BME280;37058;41.442;23.240;2023-04-30T07:22:41;100312.72;;;17.84;58.90
51031;BME280;37058;41.442;23.240;2023-04-30T07:25:09;100320.72;;;17.85;58.09
51031;BME280;37058;41.442;23.240;2023-04-30T07:27:36;100320.72;;;17.85;57.57
51031;BME280;37058;41.442;23.240;2023-04-30T07:30:03;100323.97;;;17.87;56.81
51031;BME280;37058;41.442;23.240;2023-04-30T07:32:29;100323.69;;;17.89;56.87
51031;BME280;37058;41.442;23.240;2023-04-30T07:34:56;100313.34;;;17.94;57.59
51031;BME280;37058;41.442;23.240;2023-04-30T07:37:22;100307.22;;;17.97;55.88
51031;BME280;37058;41.442;23.240;2023-04-30T07:39:48;100311.00;;;17.88;56.19
51031;BME280;37058;41.442;23.240;2023-04-30T07:42:14;100309.69;;;17.99;57.19
51031;BME280;37058;41.442;23.240;2023-04-30T07:44:40;100305.78;;;18.00;55.99
51031;BME280;37058;41.442;23.240;2023-04-30T07:47:06;100302.28;;;17.94;56.03
51031;BME280;37058;41.442;23.240;2023-04-30T07:49:32;100302.38;;;17.89;55.71
51031;BME280;37058;41.442;23.240;2023-04-30T07:51:58;100306.28;;;17.88;55.99
51031;BME280;37058;41.442;23.240;2023-04-30T07:54:25;100299.34;;;17.91;57.19
51031;BME280;37058;41.442;23.240;2023-04-30T07:56:51;100310.59;;;17.94;56.92
51031;BME280;37058;41.442;23.240;2023-04-30T07:59:17;100297.91;;;17.93;56.45
51031;BME280;37058;41.442;23.240;2023-04-30T08:01:44;100299.25;;;17.96;56.67
51031;BME280;37058;41.442;23.240;2023-04-30T08:04:10;100299.75;;;17.98;57.25
51031;BME280;37058;41.442;23.240;2023-04-30T08:06:35;100293.91;;;18.00;57.54
51031;BME280;37058;41.442;23.240;2023-04-30T08:09:02;100296.06;;;17.89;57.02
51031;BME280;37058;41.442;23.240;2023-04-30T08:11:28;100295.00;;;17.85;56.83
51031;BME280;37058;41.442;23.240;2023-04-30T08:13:54;100283.66;;;18.00;57.09
51031;BME280;37058;41.442;23.240;2023-04-30T08:16:20;100289.63;;;18.07;56.74
51031;BME280;37058;41.442;23.240;2023-04-30T08:18:46;100284.50;;;18.14;56.29
51031;BME280;37058;41.442;23.240;2023-04-30T08:21:14;100288.09;;;18.15;56.21
51031;BME280;37058;41.442;23.240;2023-04-30T08:23:40;100291.28;;;18.22;55.68
51031;BME280;37058;41.442;23.240;2023-04-30T08:26:06;100285.97;;;18.26;55.60
51031;BME280;37058;41.442;23.240;2023-04-30T08:28:32;100277.03;;;18.29;55.00
51031;BME280;37058;41.442;23.240;2023-04-30T08:30:58;100273.75;;;18.40;53.55
51031;BME280;37058;41.442;23.240;2023-04-30T08:33:24;100276.91;;;18.48;52.90
51031;BME280;37058;41.442;23.240;2023-04-30T08:35:50;100279.16;;;18.59;52.60
51031;BME280;37058;41.442;23.240;2023-04-30T08:38:16;100270.56;;;18.61;52.26
51031;BME280;37058;41.442;23.240;2023-04-30T08:40:51;100265.84;;;18.75;52.45
51031;BME280;37058;41.442;23.240;2023-04-30T08:43:21;100267.63;;;18.94;51.66
51031;BME280;37058;41.442;23.240;2023-04-30T08:45:50;100268.34;;;18.99;50.04
51031;BME280;37058;41.442;23.240;2023-04-30T08:48:18;100263.75;;;18.95;50.58
51031;BME280;37058;41.442;23.240;2023-04-30T08:50:45;100260.78;;;18.91;50.58
51031;BME280;37058;41.442;23.240;2023-04-30T08:53:12;100269.41;;;18.90;50.99
51031;BME280;37058;41.442;23.240;2023-04-30T08:55:41;100265.19;;;18.92;49.61
51031;BME280;37058;41.442;23.240;2023-04-30T08:58:08;100261.28;;;18.93;51.05
51031;BME280;37058;41.442;23.240;2023-04-30T09:00:37;100268.66;;;18.98;52.94
51031;BME280;37058;41.442;23.240;2023-04-30T09:03:05;100261.25;;;19.07;54.72
51031;BME280;37058;41.442;23.240;2023-04-30T09:05:32;100264.88;;;19.16;55.00
51031;BME280;37058;41.442;23.240;2023-04-30T09:07:58;100255.66;;;19.21;53.91
51031;BME280;37058;41.442;23.240;2023-04-30T09:10:24;100254.31;;;19.18;54.26
51031;BME280;37058;41.442;23.240;2023-04-30T09:13:09;100258.09;;;19.22;54.84
51031;BME280;37058;41.442;23.240;2023-04-30T09:15:38;100262.75;;;19.36;55.17
51031;BME280;37058;41.442;23.240;2023-04-30T09:18:17;100255.69;;;19.52;54.77
51031;BME280;37058;41.442;23.240;2023-04-30T09:21:00;100252.75;;;19.71;53.84
51031;BME280;37058;41.442;23.240;2023-04-30T09:23:31;100242.19;;;19.82;53.66
51031;BME280;37058;41.442;23.240;2023-04-30T09:25:57;100239.50;;;19.99;53.78
51031;BME280;37058;41.442;23.240;2023-04-30T09:28:23;100238.41;;;20.18;53.25
51031;BME280;37058;41.442;23.240;2023-04-30T09:30:51;100235.84;;;20.30;53.02
51031;BME280;37058;41.442;23.240;2023-04-30T09:33:18;100234.72;;;20.40;53.05
51031;BME280;37058;41.442;23.240;2023-04-30T09:35:44;100230.72;;;20.54;53.24
51031;BME280;37058;41.442;23.240;2023-04-30T09:38:31;100225.19;;;20.72;49.88
51031;BME280;37058;41.442;23.240;2023-04-30T09:40:59;100212.94;;;20.82;49.64
51031;BME280;37058;41.442;23.240;2023-04-30T09:43:29;100213.09;;;20.94;50.97
51031;BME280;37058;41.442;23.240;2023-04-30T09:45:58;100207.88;;;20.92;49.41
51031;BME280;37058;41.442;23.240;2023-04-30T09:48:25;100205.25;;;21.05;50.52
51031;BME280;37058;41.442;23.240;2023-04-30T09:50:54;100202.00;;;21.03;48.71
51031;BME280;37058;41.442;23.240;2023-04-30T09:53:20;100196.28;;;21.08;50.21
51031;BME280;37058;41.442;23.240;2023-04-30T09:55:50;100195.44;;;21.16;50.13
51031;BME280;37058;41.442;23.240;2023-04-30T09:58:18;100191.81;;;21.24;49.70
51031;BME280;37058;41.442;23.240;2023-04-30T10:00:45;100193.78;;;21.32;48.81
51031;BME280;37058;41.442;23.240;2023-04-30T10:03:14;100188.72;;;21.43;48.10
51031;BME280;37058;41.442;23.240;2023-04-30T10:05:48;100185.91;;;21.52;47.58
51031;BME280;37058;41.442;23.240;2023-04-30T10:11:17;100183.91;;;21.61;47.42
51031;BME280;37058;41.442;23.240;2023-04-30T10:13:55;100170.16;;;21.64;47.17
51031;BME280;37058;41.442;23.240;2023-04-30T10:19:24;100162.81;;;21.69;48.78
51031;BME280;37058;41.442;23.240;2023-04-30T10:21:51;100169.16;;;21.69;48.66
51031;BME280;37058;41.442;23.240;2023-04-30T10:24:19;100160.03;;;21.69;48.97
51031;BME280;37058;41.442;23.240;2023-04-30T10:26:49;100162.13;;;21.72;48.91
51031;BME280;37058;41.442;23.240;2023-04-30T10:29:16;100163.44;;;21.74;49.61
51031;BME280;37058;41.442;23.240;2023-04-30T10:31:48;100157.09;;;21.65;48.57
51031;BME280;37058;41.442;23.240;2023-04-30T10:34:40;100151.63;;;21.48;48.77
51031;BME280;37058;41.442;23.240;2023-04-30T10:37:33;100153.09;;;21.45;49.86
51031;BME280;37058;41.442;23.240;2023-04-30T10:40:02;100150.16;;;21.41;49.49
51031;BME280;37058;41.442;23.240;2023-04-30T10:42:29;100152.13;;;21.32;50.04
51031;BME280;37058;41.442;23.240;2023-04-30T10:44:56;100156.22;;;21.26;50.82
51031;BME280;37058;41.442;23.240;2023-04-30T10:47:28;100140.56;;;21.13;50.21
51031;BME280;37058;41.442;23.240;2023-04-30T10:50:08;100136.84;;;21.00;51.48
51031;BME280;37058;41.442;23.240;2023-04-30T10:52:36;100140.44;;;20.92;51.80
51031;BME280;37058;41.442;23.240;2023-04-30T10:55:09;100131.97;;;20.80;52.32
51031;BME280;37058;41.442;23.240;2023-04-30T10:57:42;100142.75;;;20.72;52.33
51031;BME280;37058;41.442;23.240;2023-04-30T11:02:45;100135.41;;;20.76;54.24
51031;BME280;37058;41.442;23.240;2023-04-30T11:05:14;100134.91;;;20.83;55.80
51031;BME280;37058;41.442;23.240;2023-04-30T11:10:16;100122.47;;;21.07;53.51
51031;BME280;37058;41.442;23.240;2023-04-30T11:12:50;100117.69;;;21.16;50.50
51031;BME280;37058;41.442;23.240;2023-04-30T11:15:20;100116.19;;;21.27;50.56
51031;BME280;37058;41.442;23.240;2023-04-30T11:17:48;100106.53;;;21.33;47.94
51031;BME280;37058;41.442;23.240;2023-04-30T11:20:20;100108.31;;;21.38;45.01
51031;BME280;37058;41.442;23.240;2023-04-30T11:22:48;100117.31;;;21.43;44.48
51031;BME280;37058;41.442;23.240;2023-04-30T11:25:43;100103.22;;;21.49;44.21
51031;BME280;37058;41.442;23.240;2023-04-30T11:28:21;100109.56;;;21.58;44.23
51031;BME280;37058;41.442;23.240;2023-04-30T11:30:57;100110.00;;;21.69;43.16
51031;BME280;37058;41.442;23.240;2023-04-30T11:33:29;100106.03;;;21.78;43.77
51031;BME280;37058;41.442;23.240;2023-04-30T11:35:56;100094.66;;;21.92;44.04
51031;BME280;37058;41.442;23.240;2023-04-30T11:38:28;100097.41;;;22.01;44.10
51031;BME280;37058;41.442;23.240;2023-04-30T11:40:56;100101.88;;;22.14;45.13
51031;BME280;37058;41.442;23.240;2023-04-30T11:43:31;100105.44;;;22.23;44.93
51031;BME280;37058;41.442;23.240;2023-04-30T11:46:17;100095.84;;;22.33;45.32
51031;BME280;37058;41.442;23.240;2023-04-30T11:48:45;100096.53;;;22.30;45.19
51031;BME280;37058;41.442;23.240;2023-04-30T11:51:21;100098.50;;;22.29;44.37
51031;BME280;37058;41.442;23.240;2023-04-30T11:53:52;100096.91;;;22.28;45.34
51031;BME280;37058;41.442;23.240;2023-04-30T11:56:23;100096.13;;;22.19;46.64
51031;BME280;37058;41.442;23.240;2023-04-30T11:58:51;100099.50;;;22.04;47.88
51031;BME280;37058;41.442;23.240;2023-04-30T12:01:18;100096.44;;;21.97;48.97
51031;BME280;37058;41.442;23.240;2023-04-30T12:03:47;100097.44;;;21.92;47.29
51031;BME280;37058;41.442;23.240;2023-04-30T12:06:25;100098.97;;;21.81;42.94
51031;BME280;37058;41.442;23.240;2023-04-30T12:09:02;100084.84;;;21.65;39.98
51031;BME280;37058;41.442;23.240;2023-04-30T12:11:33;100078.53;;;21.56;38.81
51031;BME280;37058;41.442;23.240;2023-04-30T12:19:04;100098.31;;;21.37;43.58
51031;BME280;37058;41.442;23.240;2023-04-30T12:21:30;100090.91;;;21.20;46.23
51031;BME280;37058;41.442;23.240;2023-04-30T12:23:55;100087.69;;;21.00;46.08
51031;BME280;37058;41.442;23.240;2023-04-30T12:26:22;100094.75;;;20.81;45.44
51031;BME280;37058;41.442;23.240;2023-04-30T12:28:48;100090.34;;;20.71;45.51
51031;BME280;37058;41.442;23.240;2023-04-30T12:31:16;100091.53;;;20.61;45.00
51031;BME280;37058;41.442;23.240;2023-04-30T12:33:43;100087.91;;;20.52;44.09
51031;BME280;37058;41.442;23.240;2023-04-30T12:36:12;100087.72;;;20.48;45.14
51031;BME280;37058;41.442;23.240;2023-04-30T12:38:42;100091.97;;;20.46;44.23
51031;BME280;37058;41.442;23.240;2023-04-30T12:41:11;100085.09;;;20.43;44.49
51031;BME280;37058;41.442;23.240;2023-04-30T12:43:39;100086.09;;;20.47;44.71
51031;BME280;37058;41.442;23.240;2023-04-30T12:46:05;100090.34;;;20.45;46.72
51031;BME280;37058;41.442;23.240;2023-04-30T12:48:43;100084.97;;;20.31;50.15
51031;BME280;37058;41.442;23.240;2023-04-30T12:51:18;100077.94;;;20.25;51.16
51031;BME280;37058;41.442;23.240;2023-04-30T12:53:45;100078.44;;;20.18;51.90
51031;BME280;37058;41.442;23.240;2023-04-30T12:56:15;100062.28;;;20.11;52.85
51031;BME280;37058;41.442;23.240;2023-04-30T12:58:46;100061.13;;;20.12;52.52
51031;BME280;37058;41.442;23.240;2023-04-30T13:01:16;100070.78;;;20.24;51.96
51031;BME280;37058;41.442;23.240;2023-04-30T13:03:43;100076.81;;;20.34;52.34
51031;BME280;37058;41.442;23.240;2023-04-30T13:06:08;100069.63;;;20.51;54.13
51031;BME280;37058;41.442;23.240;2023-04-30T13:08:35;100069.78;;;20.63;52.52
51031;BME280;37058;41.442;23.240;2023-04-30T13:11:01;100066.34;;;20.75;52.95
51031;BME280;37058;41.442;23.240;2023-04-30T13:13:27;100067.63;;;20.86;53.81
51031;BME280;37058;41.442;23.240;2023-04-30T13:15:53;100053.56;;;20.91;53.66